createdAt,value
2023-01-20T00:01:38.127Z,4.47
2023-01-20T00:04:06.066Z,4.88
2023-01-20T00:06:33.343Z,4.05
2023-01-20T00:09:02.367Z,3.95
2023-01-20T00:11:29.752Z,4.50
2023-01-20T00:13:59.452Z,4.35
2023-01-20T00:16:27.617Z,4.05
2023-01-20T00:18:55.168Z,4.13
2023-01-20T00:21:23.008Z,4.22
2023-01-20T00:23:50.720Z,4.22
2023-01-20T00:26:20.341Z,4.40
2023-01-20T00:28:48.882Z,3.80
2023-01-20T00:31:19.213Z,4.18
2023-01-20T00:33:48.114Z,4.43
2023-01-20T00:36:17.496Z,4.25
2023-01-20T00:38:44.777Z,4.30
2023-01-20T00:41:12.316Z,4.22
2023-01-20T00:43:40.139Z,4.10
2023-01-20T00:46:08.355Z,3.72
2023-01-20T00:48:36.363Z,4.60
2023-01-20T00:51:04.470Z,4.70
2023-01-20T00:53:32.324Z,3.72
2023-01-20T00:55:59.572Z,4.10
2023-01-20T00:58:26.865Z,3.70
2023-01-20T01:00:55.466Z,4.13
2023-01-20T01:03:22.818Z,4.03
2023-01-20T01:05:50.244Z,3.50
2023-01-20T01:08:17.523Z,4.07
2023-01-20T01:10:44.795Z,3.20
2023-01-20T01:13:12.206Z,3.50
2023-01-20T01:15:39.484Z,3.50
2023-01-20T01:18:06.729Z,3.83
2023-01-20T01:20:33.918Z,3.95
2023-01-20T01:23:01.163Z,3.40
2023-01-20T01:25:28.308Z,3.38
2023-01-20T01:27:55.473Z,3.72
2023-01-20T01:30:22.678Z,3.72
2023-01-20T01:32:49.835Z,3.60
2023-01-20T01:35:17.230Z,2.90
2023-01-20T01:37:44.744Z,3.67
2023-01-20T01:40:12.148Z,2.90
2023-01-20T01:42:41.363Z,2.83
2023-01-20T01:45:13.749Z,3.40
2023-01-20T01:47:46.469Z,3.35
2023-01-20T01:50:27.606Z,2.97
2023-01-20T01:52:56.213Z,3.53
2023-01-20T01:55:27.717Z,3.05
2023-01-20T01:57:56.891Z,2.85
2023-01-20T02:00:24.068Z,2.55
2023-01-20T02:02:51.994Z,2.83
2023-01-20T02:05:20.147Z,2.75
2023-01-20T02:07:48.938Z,2.22
2023-01-20T02:10:17.052Z,2.97
2023-01-20T02:12:49.538Z,3.25
2023-01-20T02:15:18.246Z,2.45
2023-01-20T02:18:18.340Z,2.67
2023-01-20T02:21:02.743Z,2.17
2023-01-20T02:24:04.802Z,2.65
2023-01-20T02:26:53.099Z,2.20
2023-01-20T02:29:32.224Z,2.83
2023-01-20T02:32:11.631Z,2.30
2023-01-20T02:34:41.738Z,2.28
2023-01-20T02:37:08.916Z,2.53
2023-01-20T02:40:13.053Z,2.30
2023-01-20T02:42:55.137Z,3.25
2023-01-20T02:45:28.549Z,1.92
2023-01-20T02:48:02.929Z,2.40
2023-01-20T02:50:42.704Z,2.47
2023-01-20T02:53:12.724Z,2.10
2023-01-20T02:55:47.419Z,2.30
2023-01-20T02:58:19.796Z,3.00
2023-01-20T03:01:07.670Z,1.90
2023-01-20T03:03:38.908Z,1.80
2023-01-20T03:06:12.164Z,1.25
2023-01-20T03:08:40.814Z,1.58
2023-01-20T03:11:09.271Z,2.40
2023-01-20T03:13:56.256Z,2.00
2023-01-20T03:16:24.838Z,1.60
2023-01-20T03:18:52.541Z,2.22
2023-01-20T03:21:19.732Z,1.75
2023-01-20T03:23:53.373Z,1.95
2023-01-20T03:26:22.855Z,1.80
2023-01-20T03:28:50.718Z,1.73
2023-01-20T03:31:23.765Z,1.55
2023-01-20T03:33:54.513Z,2.15
2023-01-20T03:36:25.071Z,1.90
2023-01-20T03:38:53.409Z,1.92
2023-01-20T03:41:26.456Z,1.90
2023-01-20T03:44:17.155Z,1.65
2023-01-20T03:47:08.701Z,1.27
2023-01-20T03:49:51.369Z,2.05
2023-01-20T03:52:47.756Z,1.95
2023-01-20T03:55:22.708Z,1.52
2023-01-20T03:58:15.640Z,2.05
2023-01-20T04:00:46.522Z,1.73
2023-01-20T04:03:20.383Z,1.27
2023-01-20T04:05:49.602Z,1.90
2023-01-20T04:08:18.999Z,1.48
2023-01-20T04:10:48.274Z,1.33
2023-01-20T04:13:16.288Z,1.30
2023-01-20T04:15:45.299Z,1.13
2023-01-20T04:18:18.571Z,1.60
2023-01-20T04:20:49.284Z,1.45
2023-01-20T04:23:27.458Z,1.77
2023-01-20T04:26:09.599Z,2.75
2023-01-20T04:28:36.693Z,1.15
2023-01-20T04:31:03.954Z,1.25
2023-01-20T04:33:31.082Z,1.65
2023-01-20T04:35:58.186Z,1.42
2023-01-20T04:38:25.312Z,1.17
2023-01-20T04:40:52.444Z,1.40
2023-01-20T04:43:19.612Z,1.83
2023-01-20T04:45:46.805Z,1.63
2023-01-20T04:48:13.917Z,1.45
2023-01-20T04:50:41.839Z,1.65
2023-01-20T04:53:16.905Z,1.35
2023-01-20T04:55:44.045Z,1.05
2023-01-20T04:58:11.267Z,1.38
2023-01-20T05:00:38.538Z,1.10
2023-01-20T05:03:06.447Z,1.33
2023-01-20T05:05:33.961Z,1.33
2023-01-20T05:08:01.175Z,1.58
2023-01-20T05:10:28.336Z,1.52
2023-01-20T05:12:55.436Z,2.17
2023-01-20T05:15:22.590Z,1.67
2023-01-20T05:17:49.707Z,1.75
2023-01-20T05:20:19.069Z,1.33
2023-01-20T05:22:46.650Z,1.60
2023-01-20T05:25:14.323Z,1.25
2023-01-20T05:27:41.691Z,2.03
2023-01-20T05:30:09.563Z,1.40
2023-01-20T05:32:36.848Z,1.40
2023-01-20T05:35:04.914Z,1.80
2023-01-20T05:37:32.171Z,1.25
2023-01-20T05:39:59.341Z,1.40
2023-01-20T05:42:26.473Z,1.70
2023-01-20T05:44:53.620Z,1.58
2023-01-20T05:47:20.649Z,1.63
2023-01-20T05:49:47.761Z,2.15
2023-01-20T05:52:14.872Z,1.35
2023-01-20T05:54:42.078Z,1.50
2023-01-20T05:57:09.178Z,1.10
2023-01-20T05:59:36.330Z,1.05
2023-01-20T06:02:03.529Z,1.30
2023-01-20T06:04:30.644Z,1.17
2023-01-20T06:06:58.217Z,1.33
2023-01-20T06:09:25.337Z,1.48
2023-01-20T06:11:52.523Z,1.38
2023-01-20T06:14:19.773Z,1.10
2023-01-20T06:16:46.861Z,1.40
2023-01-20T06:19:14.023Z,1.48
2023-01-20T06:21:41.143Z,1.40
2023-01-20T06:24:08.392Z,1.67
2023-01-20T06:26:35.512Z,1.83
2023-01-20T06:29:02.633Z,1.90
2023-01-20T06:31:29.975Z,1.63
2023-01-20T06:33:57.214Z,1.40
2023-01-20T06:36:24.673Z,1.20
2023-01-20T06:38:53.037Z,1.42
2023-01-20T06:41:21.243Z,1.40
2023-01-20T06:43:50.216Z,1.48
2023-01-20T06:46:17.513Z,2.35
2023-01-20T06:48:45.850Z,1.42
2023-01-20T06:51:14.399Z,1.35
2023-01-20T06:53:42.209Z,1.35
2023-01-20T06:56:13.279Z,1.00
2023-01-20T06:58:40.830Z,3.40
2023-01-20T07:01:13.594Z,3.03
2023-01-20T07:03:44.029Z,3.63
2023-01-20T07:06:18.216Z,2.63
2023-01-20T07:08:46.288Z,2.50
2023-01-20T07:11:13.539Z,2.25
2023-01-20T07:13:40.655Z,2.08
2023-01-20T07:16:11.024Z,2.08
2023-01-20T07:18:39.885Z,1.48
2023-01-20T07:21:07.481Z,1.38
2023-01-20T07:23:34.810Z,1.65
2023-01-20T07:26:13.680Z,1.13
2023-01-20T07:28:40.902Z,1.60
2023-01-20T07:31:18.801Z,1.67
2023-01-20T07:33:46.606Z,1.50
2023-01-20T07:36:15.564Z,1.67
2023-01-20T07:38:43.707Z,1.70
2023-01-20T07:41:18.312Z,1.77
2023-01-20T07:43:47.880Z,4.05
2023-01-20T07:46:15.559Z,1.45
2023-01-20T07:48:43.175Z,1.70
2023-01-20T07:51:13.183Z,2.13
2023-01-20T07:53:46.634Z,2.05
2023-01-20T07:56:19.809Z,2.15
2023-01-20T07:58:47.779Z,2.20
2023-01-20T08:01:21.152Z,1.30
2023-01-20T08:03:49.370Z,1.70
2023-01-20T08:06:19.334Z,1.48
2023-01-20T08:08:46.985Z,3.45
2023-01-20T08:11:15.838Z,1.60
2023-01-20T08:13:43.752Z,1.75
2023-01-20T08:16:13.543Z,1.30
2023-01-20T08:18:41.588Z,1.30
2023-01-20T08:21:17.589Z,1.15
2023-01-20T08:23:44.773Z,1.70
2023-01-20T08:26:11.899Z,2.25
2023-01-20T08:28:39.164Z,2.15
2023-01-20T08:31:09.376Z,1.77
2023-01-20T08:33:37.274Z,2.15
2023-01-20T08:36:06.384Z,2.05
2023-01-20T08:38:34.103Z,1.60
2023-01-20T08:41:01.319Z,2.50
2023-01-20T08:43:28.708Z,2.40
2023-01-20T08:46:01.209Z,1.80
2023-01-20T08:48:29.017Z,2.30
2023-01-20T08:50:56.399Z,1.80
2023-01-20T08:53:23.497Z,1.60
2023-01-20T08:55:58.866Z,1.80
2023-01-20T08:58:27.607Z,2.78
2023-01-20T09:00:55.244Z,2.05
2023-01-20T09:03:23.205Z,2.47
2023-01-20T09:05:50.984Z,2.15
2023-01-20T09:08:19.631Z,2.45
2023-01-20T09:10:47.086Z,2.70
2023-01-20T09:13:14.385Z,1.98
2023-01-20T09:15:41.591Z,3.65
2023-01-20T09:18:08.784Z,2.33
2023-01-20T09:20:36.033Z,2.42
2023-01-20T09:23:03.274Z,1.92
2023-01-20T09:25:30.451Z,2.20
2023-01-20T09:28:01.477Z,3.50
2023-01-20T09:30:28.750Z,2.17
2023-01-20T09:32:58.084Z,2.40
2023-01-20T09:35:25.805Z,2.95
2023-01-20T09:38:12.047Z,2.65
2023-01-20T09:41:35.766Z,4.85
2023-01-20T09:44:21.491Z,4.70
2023-01-20T09:47:19.527Z,7.63
2023-01-20T09:50:17.513Z,5.57
2023-01-20T09:53:05.933Z,5.10
2023-01-20T09:55:42.740Z,4.65
2023-01-20T09:58:30.906Z,3.85
2023-01-20T10:01:24.635Z,3.85
2023-01-20T10:03:54.806Z,3.80
2023-01-20T10:06:57.631Z,4.05
2023-01-20T10:09:42.906Z,4.97
2023-01-20T10:12:19.693Z,4.20
2023-01-20T10:14:58.553Z,3.97
2023-01-20T10:17:37.711Z,8.73
2023-01-20T10:20:33.372Z,59.40
2023-01-20T10:23:11.167Z,79.10
2023-01-20T10:25:58.872Z,11.40
2023-01-20T10:28:31.611Z,11.00
2023-01-20T10:31:03.305Z,4.43
2023-01-20T10:33:42.191Z,3.72
2023-01-20T10:36:30.238Z,3.17
2023-01-20T10:39:13.466Z,3.20
2023-01-20T10:41:53.092Z,2.78
2023-01-20T10:44:23.798Z,3.05
2023-01-20T10:47:16.318Z,3.85
2023-01-20T10:52:29.256Z,3.05
2023-01-20T10:55:16.911Z,2.30
2023-01-20T10:57:45.119Z,2.83
2023-01-20T11:00:27.534Z,3.30
2023-01-20T11:02:59.174Z,2.92
2023-01-20T11:05:30.326Z,3.80
2023-01-20T11:08:00.433Z,2.97
2023-01-20T11:10:30.245Z,3.50
2023-01-20T11:13:00.649Z,2.63
2023-01-20T11:15:30.838Z,3.20
2023-01-20T11:18:16.579Z,3.22
2023-01-20T11:20:57.714Z,2.47
2023-01-20T11:23:52.392Z,4.22
2023-01-20T11:26:21.697Z,3.58
2023-01-20T11:28:53.042Z,2.65
2023-01-20T11:31:21.716Z,3.13
2023-01-20T11:33:56.771Z,2.95
2023-01-20T11:36:25.953Z,2.90
2023-01-20T11:38:54.895Z,3.63
2023-01-20T11:41:26.475Z,2.97
2023-01-20T11:43:56.343Z,3.20
2023-01-20T11:46:32.218Z,3.28
2023-01-20T11:49:13.660Z,2.92
2023-01-20T11:51:46.459Z,3.27
2023-01-20T11:54:24.837Z,2.75
2023-01-20T11:57:07.680Z,3.35
2023-01-20T11:59:36.859Z,3.20
2023-01-20T12:02:07.416Z,3.10
2023-01-20T12:05:02.518Z,2.83
2023-01-20T12:07:39.957Z,4.05
2023-01-20T12:10:28.286Z,2.78
2023-01-20T12:13:05.448Z,2.40
2023-01-20T12:15:35.391Z,2.75
2023-01-20T12:18:32.814Z,2.40
2023-01-20T12:21:18.830Z,2.88
2023-01-20T12:24:12.097Z,3.08
2023-01-20T12:26:42.331Z,2.92
2023-01-20T12:29:28.952Z,2.58
2023-01-20T12:31:56.265Z,2.92
2023-01-20T12:34:31.635Z,3.33
2023-01-20T12:37:31.520Z,3.97
2023-01-20T12:40:29.341Z,3.00
2023-01-20T12:43:16.082Z,4.07
2023-01-20T12:45:53.791Z,3.05
2023-01-20T12:48:52.363Z,3.25
2023-01-20T12:51:22.658Z,2.72
2023-01-20T12:54:17.245Z,2.50
2023-01-20T12:57:02.876Z,2.80
2023-01-20T12:59:51.138Z,2.65
2023-01-20T13:02:37.819Z,3.10
2023-01-20T13:05:22.401Z,2.38
2023-01-20T13:08:12.290Z,3.25
2023-01-20T13:10:56.581Z,3.67
2023-01-20T13:13:57.308Z,2.60
2023-01-20T13:17:09.377Z,2.75
2023-01-20T13:19:41.355Z,2.53
2023-01-20T13:22:19.185Z,3.08
2023-01-20T13:24:49.143Z,2.45
2023-01-20T13:27:37.705Z,3.30
2023-01-20T13:30:08.344Z,3.08
2023-01-20T13:32:45.296Z,3.00
2023-01-20T13:35:18.439Z,2.80
2023-01-20T13:38:00.189Z,2.83
2023-01-20T13:40:36.425Z,2.67
2023-01-20T13:43:24.200Z,2.40
2023-01-20T13:46:04.024Z,3.30
2023-01-20T13:48:33.622Z,3.33
2023-01-20T13:51:39.236Z,3.28
2023-01-20T13:54:35.487Z,2.70
2023-01-20T13:57:24.308Z,2.53
2023-01-20T13:59:51.556Z,2.83
2023-01-20T14:02:23.834Z,3.00
2023-01-20T14:04:51.405Z,3.00
2023-01-20T14:07:33.046Z,3.20
2023-01-20T14:10:02.293Z,3.50
2023-01-20T14:12:29.719Z,3.50
2023-01-20T14:14:57.078Z,6.88
2023-01-20T14:17:25.397Z,3.00
2023-01-20T14:19:55.238Z,3.00
2023-01-20T14:22:32.189Z,3.30
2023-01-20T14:25:01.822Z,3.28
2023-01-20T14:27:35.580Z,3.20
2023-01-20T14:30:20.854Z,3.13
2023-01-20T14:32:48.504Z,3.03
2023-01-20T14:35:37.396Z,2.47
2023-01-20T14:38:05.027Z,2.88
2023-01-20T14:40:35.350Z,2.95
2023-01-20T14:43:12.933Z,3.33
2023-01-20T14:45:45.273Z,2.83
2023-01-20T14:48:24.782Z,3.28
2023-01-20T14:51:02.928Z,2.72
2023-01-20T14:53:30.381Z,2.85
2023-01-20T14:56:10.007Z,2.80
2023-01-20T14:58:45.483Z,3.08
2023-01-20T15:01:22.915Z,2.53
2023-01-20T15:04:02.245Z,2.22
2023-01-20T15:06:29.600Z,2.20
2023-01-20T15:09:06.730Z,2.58
2023-01-20T15:11:36.795Z,3.15
2023-01-20T15:14:05.543Z,3.55
2023-01-20T15:16:36.101Z,26.40
2023-01-20T15:19:15.996Z,7.60
2023-01-20T15:21:46.200Z,4.90
2023-01-20T15:24:35.907Z,2.30
2023-01-20T15:27:19.279Z,4.60
2023-01-20T15:30:00.685Z,4.13
2023-01-20T15:32:28.175Z,12.75
2023-01-20T15:34:55.430Z,5.57
2023-01-20T15:37:24.504Z,3.17
2023-01-20T15:39:53.850Z,3.65
2023-01-20T15:42:21.649Z,7.18
2023-01-20T15:44:49.129Z,6.30
2023-01-20T15:47:31.009Z,4.55
2023-01-20T15:49:58.704Z,3.55
2023-01-20T15:52:26.274Z,4.38
2023-01-20T15:54:53.542Z,4.03
2023-01-20T15:57:20.725Z,4.40
2023-01-20T15:59:50.189Z,2.97
2023-01-20T16:02:19.702Z,3.08
2023-01-20T16:04:47.056Z,4.35
2023-01-20T16:07:19.164Z,4.55
2023-01-20T16:09:47.059Z,4.45
2023-01-20T16:12:16.191Z,4.38
2023-01-20T16:14:44.340Z,2.95
2023-01-20T16:17:17.186Z,3.05
2023-01-20T16:19:44.911Z,4.85
2023-01-20T16:22:13.618Z,3.70
2023-01-20T16:24:42.492Z,3.72
2023-01-20T16:27:20.680Z,3.28
2023-01-20T16:29:48.907Z,3.95
2023-01-20T16:32:18.662Z,2.72
2023-01-20T16:34:47.215Z,3.22
2023-01-20T16:37:14.870Z,2.85
2023-01-20T16:39:42.302Z,2.78
2023-01-20T16:42:14.930Z,2.85
2023-01-20T16:44:42.188Z,2.47
2023-01-20T16:47:09.474Z,2.47
2023-01-20T16:49:36.752Z,3.20
2023-01-20T16:52:04.384Z,2.83
2023-01-20T16:54:31.487Z,3.83
2023-01-20T16:56:58.805Z,2.78
2023-01-20T16:59:26.142Z,2.58
2023-01-20T17:01:53.352Z,3.22
2023-01-20T17:04:20.578Z,2.67
2023-01-20T17:06:47.867Z,3.40
2023-01-20T17:09:15.077Z,3.30
2023-01-20T17:11:42.228Z,2.92
2023-01-20T17:14:11.235Z,2.92
2023-01-20T17:16:39.232Z,3.42
2023-01-20T17:19:06.725Z,4.05
2023-01-20T17:21:37.228Z,4.50
2023-01-20T17:24:05.398Z,3.80
2023-01-20T17:26:32.675Z,3.78
2023-01-20T17:29:02.649Z,4.43
2023-01-20T17:31:33.189Z,5.65
2023-01-20T17:34:00.542Z,4.60
2023-01-20T17:36:29.669Z,12.85
2023-01-20T17:38:58.020Z,19.60
2023-01-20T17:41:25.255Z,6.07
2023-01-20T17:43:52.449Z,5.35
2023-01-20T17:46:26.076Z,20.00
2023-01-20T17:48:53.304Z,4.45
2023-01-20T17:51:25.459Z,4.53
2023-01-20T17:53:53.042Z,3.38
2023-01-20T17:56:22.079Z,4.75
2023-01-20T17:58:49.950Z,3.33
2023-01-20T18:01:25.898Z,3.42
2023-01-20T18:03:54.981Z,3.33
2023-01-20T18:06:23.663Z,3.00
2023-01-20T18:08:56.536Z,3.33
2023-01-20T18:11:25.768Z,2.80
2023-01-20T18:13:58.190Z,3.92
2023-01-20T18:16:29.813Z,2.22
2023-01-20T18:18:59.087Z,2.75
2023-01-20T18:21:28.961Z,2.50
2023-01-20T18:23:57.193Z,2.90
2023-01-20T18:26:26.784Z,3.30
2023-01-20T18:28:55.164Z,2.38
2023-01-20T18:31:23.903Z,2.85
2023-01-20T18:33:54.485Z,2.63
2023-01-20T18:36:33.590Z,2.47
2023-01-20T18:39:04.547Z,2.95
2023-01-20T18:41:36.469Z,2.38
2023-01-20T18:44:05.956Z,2.88
2023-01-20T18:46:33.441Z,2.70
2023-01-20T18:49:00.854Z,2.55
2023-01-20T18:51:30.090Z,2.97
2023-01-20T18:54:04.692Z,2.72
2023-01-20T18:56:35.681Z,2.40
2023-01-20T18:59:04.781Z,2.47
2023-01-20T19:01:34.379Z,3.00
2023-01-20T19:04:03.227Z,4.00
2023-01-20T19:06:34.328Z,3.55
2023-01-20T19:09:02.402Z,3.33
2023-01-20T19:11:36.385Z,3.40
2023-01-20T19:14:04.576Z,3.25
2023-01-20T19:16:42.424Z,5.35
2023-01-20T19:19:10.947Z,4.00
2023-01-20T19:21:38.311Z,5.07
2023-01-20T19:24:07.999Z,4.22
2023-01-20T19:26:37.801Z,4.43
2023-01-20T19:29:07.988Z,3.60
2023-01-20T19:31:37.472Z,3.38
2023-01-20T19:34:06.188Z,3.28
2023-01-20T19:36:34.156Z,3.13
2023-01-20T19:39:01.683Z,3.13
2023-01-20T19:41:33.726Z,2.97
2023-01-20T19:44:03.191Z,4.28
2023-01-20T19:46:33.950Z,3.55
2023-01-20T19:49:02.528Z,3.13
2023-01-20T19:51:33.489Z,3.92
2023-01-20T19:54:02.425Z,3.70
2023-01-20T19:56:32.687Z,3.78
2023-01-20T19:59:02.689Z,3.60
2023-01-20T20:01:34.767Z,3.97
2023-01-20T20:04:10.323Z,4.10
2023-01-20T20:06:39.495Z,3.83
2023-01-20T20:09:10.450Z,3.63
2023-01-20T20:11:37.981Z,4.30
2023-01-20T20:14:06.933Z,4.97
2023-01-20T20:16:36.485Z,5.10
2023-01-20T20:19:05.550Z,5.25
2023-01-20T20:21:34.015Z,4.13
2023-01-20T20:24:05.398Z,4.72
2023-01-20T20:26:35.558Z,5.53
2023-01-20T20:29:06.268Z,4.60
2023-01-20T20:31:35.838Z,4.65
2023-01-20T20:34:05.049Z,3.97
2023-01-20T20:36:33.681Z,4.20
2023-01-20T20:39:02.277Z,4.18
2023-01-20T20:41:31.781Z,5.22
2023-01-20T20:44:00.818Z,3.75
2023-01-20T20:46:29.545Z,4.53
2023-01-20T20:48:59.446Z,4.22
2023-01-20T20:51:29.154Z,4.88
2023-01-20T20:53:57.912Z,4.20
2023-01-20T20:56:27.992Z,4.22
2023-01-20T20:59:01.915Z,3.95
2023-01-20T21:01:32.828Z,3.55
2023-01-20T21:04:00.919Z,4.72
2023-01-20T21:06:29.016Z,4.22
2023-01-20T21:08:56.720Z,6.22
2023-01-20T21:11:25.058Z,4.32
2023-01-20T21:13:52.948Z,5.40
2023-01-20T21:16:23.143Z,4.55
2023-01-20T21:18:52.973Z,3.92
2023-01-20T21:21:20.763Z,4.72
2023-01-20T21:23:56.326Z,4.55
2023-01-20T21:26:26.219Z,4.80
2023-01-20T21:28:54.625Z,5.78
2023-01-20T21:31:29.558Z,4.65
2023-01-20T21:33:59.581Z,4.22
2023-01-20T21:36:29.224Z,4.82
2023-01-20T21:38:57.909Z,5.32
2023-01-20T21:41:25.245Z,4.80
2023-01-20T21:44:13.918Z,4.40
2023-01-20T21:46:41.179Z,4.95
2023-01-20T21:49:27.274Z,4.80
2023-01-20T21:52:14.377Z,4.88
2023-01-20T21:54:41.919Z,4.25
2023-01-20T21:57:09.465Z,4.82
2023-01-20T21:59:36.963Z,4.53
2023-01-20T22:02:04.253Z,4.65
2023-01-20T22:04:32.261Z,6.30
2023-01-20T22:06:59.604Z,5.25
2023-01-20T22:09:26.789Z,5.45
2023-01-20T22:11:54.026Z,5.60
2023-01-20T22:14:21.295Z,5.30
2023-01-20T22:16:48.597Z,4.85
2023-01-20T22:19:15.942Z,5.93
2023-01-20T22:21:43.162Z,6.38
2023-01-20T22:24:11.138Z,6.20
2023-01-20T22:26:42.047Z,6.22
2023-01-20T22:29:20.279Z,5.80
2023-01-20T22:31:51.267Z,5.75
2023-01-20T22:34:24.790Z,5.35
2023-01-20T22:36:52.091Z,5.60
2023-01-20T22:39:19.567Z,6.10
2023-01-20T22:41:49.684Z,5.25
2023-01-20T22:44:17.176Z,5.40
2023-01-20T22:46:44.377Z,6.63
2023-01-20T22:49:14.421Z,5.53
2023-01-20T22:51:41.681Z,5.38
2023-01-20T22:54:10.740Z,6.53
2023-01-20T22:56:39.421Z,5.22
2023-01-20T22:59:06.925Z,15.75
2023-01-20T23:01:37.482Z,5.70
2023-01-20T23:04:06.021Z,6.10
2023-01-20T23:06:35.829Z,8.48
2023-01-20T23:09:09.395Z,13.45
2023-01-20T23:11:38.419Z,30.63
2023-01-20T23:14:06.650Z,34.20
2023-01-20T23:16:34.101Z,15.68
2023-01-20T23:19:01.329Z,9.45
2023-01-20T23:21:28.672Z,7.75
2023-01-20T23:23:56.023Z,9.23
2023-01-20T23:26:29.087Z,7.45
2023-01-20T23:28:56.983Z,18.10
2023-01-20T23:31:26.083Z,5.45
2023-01-20T23:33:54.498Z,6.75
2023-01-20T23:36:24.757Z,6.53
2023-01-20T23:38:54.642Z,8.38
2023-01-20T23:41:22.250Z,5.72
2023-01-20T23:43:49.622Z,6.82
2023-01-20T23:46:16.972Z,4.50
2023-01-20T23:48:46.758Z,5.00
2023-01-20T23:51:14.854Z,8.60
2023-01-20T23:53:42.396Z,12.13
2023-01-20T23:56:15.402Z,12.90
2023-01-20T23:58:43.142Z,31.42
